sensor_id;sensor_type;location;lat;lon;timestamp;P1;durP1;ratioP1;P2;durP2;ratioP2
24813;SDS011;12904;50.088;11.414;2023-09-08T00:00:44;8.75;;;6.25;;
24813;SDS011;12904;50.088;11.414;2023-09-08T00:03:09;7.53;;;6.85;;
24813;SDS011;12904;50.088;11.414;2023-09-08T00:05:35;7.53;;;6.90;;
24813;SDS011;12904;50.088;11.414;2023-09-08T00:08:01;6.50;;;5.90;;
24813;SDS011;12904;50.088;11.414;2023-09-08T00:10:26;6.18;;;5.68;;
24813;SDS011;12904;50.088;11.414;2023-09-08T00:12:52;7.95;;;5.20;;
24813;SDS011;12904;50.088;11.414;2023-09-08T00:15:17;6.75;;;5.63;;
24813;SDS011;12904;50.088;11.414;2023-09-08T00:17:43;7.47;;;5.53;;
24813;SDS011;12904;50.088;11.414;2023-09-08T00:20:09;6.22;;;5.72;;
24813;SDS011;12904;50.088;11.414;2023-09-08T00:22:35;7.90;;;7.20;;
24813;SDS011;12904;50.088;11.414;2023-09-08T00:25:02;6.22;;;5.72;;
24813;SDS011;12904;50.088;11.414;2023-09-08T00:27:29;7.60;;;7.00;;
24813;SDS011;12904;50.088;11.414;2023-09-08T00:29:55;10.82;;;7.18;;
24813;SDS011;12904;50.088;11.414;2023-09-08T00:32:20;8.20;;;6.55;;
24813;SDS011;12904;50.088;11.414;2023-09-08T00:34:46;6.60;;;6.00;;
24813;SDS011;12904;50.088;11.414;2023-09-08T00:37:12;8.23;;;6.10;;
24813;SDS011;12904;50.088;11.414;2023-09-08T00:39:37;10.07;;;6.78;;
24813;SDS011;12904;50.088;11.414;2023-09-08T00:42:03;7.75;;;7.15;;
24813;SDS011;12904;50.088;11.414;2023-09-08T00:44:29;6.85;;;6.35;;
24813;SDS011;12904;50.088;11.414;2023-09-08T00:46:55;7.00;;;6.40;;
24813;SDS011;12904;50.088;11.414;2023-09-08T00:49:21;6.13;;;5.63;;
24813;SDS011;12904;50.088;11.414;2023-09-08T00:51:47;6.90;;;6.25;;
24813;SDS011;12904;50.088;11.414;2023-09-08T00:54:13;8.02;;;7.43;;
24813;SDS011;12904;50.088;11.414;2023-09-08T00:56:39;1999.90;;;999.90;;
24813;SDS011;12904;50.088;11.414;2023-09-08T00:59:05;2.83;;;2.63;;
24813;SDS011;12904;50.088;11.414;2023-09-08T01:01:33;22.20;;;4.63;;
24813;SDS011;12904;50.088;11.414;2023-09-08T01:04:00;6.22;;;5.30;;
24813;SDS011;12904;50.088;11.414;2023-09-08T01:06:26;5.53;;;5.03;;
24813;SDS011;12904;50.088;11.414;2023-09-08T01:08:52;5.85;;;4.50;;
24813;SDS011;12904;50.088;11.414;2023-09-08T01:11:20;5.70;;;5.20;;
24813;SDS011;12904;50.088;11.414;2023-09-08T01:13:46;1999.90;;;999.90;;
24813;SDS011;12904;50.088;11.414;2023-09-08T01:16:12;349.38;;;78.40;;
24813;SDS011;12904;50.088;11.414;2023-09-08T01:18:37;2.60;;;2.42;;
24813;SDS011;12904;50.088;11.414;2023-09-08T01:21:06;2.53;;;2.20;;
24813;SDS011;12904;50.088;11.414;2023-09-08T01:24:21;1.50;;;1.40;;
24813;SDS011;12904;50.088;11.414;2023-09-08T01:26:44;3.45;;;2.25;;
24813;SDS011;12904;50.088;11.414;2023-09-08T01:29:11;2.53;;;2.33;;
24813;SDS011;12904;50.088;11.414;2023-09-08T01:31:39;2.78;;;2.25;;
24813;SDS011;12904;50.088;11.414;2023-09-08T01:34:05;3.78;;;3.58;;
24813;SDS011;12904;50.088;11.414;2023-09-08T01:36:32;1999.90;;;999.90;;
24813;SDS011;12904;50.088;11.414;2023-09-08T01:38:59;608.88;;;108.10;;
24813;SDS011;12904;50.088;11.414;2023-09-08T01:41:26;270.08;;;61.75;;
24813;SDS011;12904;50.088;11.414;2023-09-08T01:43:52;3.53;;;1.65;;
24813;SDS011;12904;50.088;11.414;2023-09-08T01:46:17;1.95;;;1.70;;
24813;SDS011;12904;50.088;11.414;2023-09-08T01:48:43;39.85;;;4.53;;
24813;SDS011;12904;50.088;11.414;2023-09-08T01:51:09;2.25;;;2.05;;
24813;SDS011;12904;50.088;11.414;2023-09-08T01:53:34;35.78;;;26.55;;
24813;SDS011;12904;50.088;11.414;2023-09-08T01:56:00;66.60;;;61.90;;
24813;SDS011;12904;50.088;11.414;2023-09-08T01:58:26;102.45;;;33.95;;
24813;SDS011;12904;50.088;11.414;2023-09-08T02:00:51;7.00;;;6.47;;
24813;SDS011;12904;50.088;11.414;2023-09-08T02:03:17;6.80;;;6.30;;
24813;SDS011;12904;50.088;11.414;2023-09-08T02:05:43;7.95;;;5.45;;
24813;SDS011;12904;50.088;11.414;2023-09-08T02:08:09;5.38;;;4.93;;
24813;SDS011;12904;50.088;11.414;2023-09-08T02:10:35;6.22;;;4.95;;
24813;SDS011;12904;50.088;11.414;2023-09-08T02:13:00;5.07;;;4.63;;
24813;SDS011;12904;50.088;11.414;2023-09-08T02:15:26;5.15;;;4.75;;
24813;SDS011;12904;50.088;11.414;2023-09-08T02:17:55;3.90;;;3.60;;
24813;SDS011;12904;50.088;11.414;2023-09-08T02:20:21;4.30;;;4.00;;
24813;SDS011;12904;50.088;11.414;2023-09-08T02:22:49;4.70;;;4.30;;
24813;SDS011;12904;50.088;11.414;2023-09-08T02:25:18;4.00;;;3.60;;
24813;SDS011;12904;50.088;11.414;2023-09-08T02:27:44;4.40;;;4.00;;
24813;SDS011;12904;50.088;11.414;2023-09-08T02:30:09;5.18;;;4.47;;
24813;SDS011;12904;50.088;11.414;2023-09-08T02:32:35;4.93;;;4.53;;
24813;SDS011;12904;50.088;11.414;2023-09-08T02:35:01;5.22;;;4.72;;
24813;SDS011;12904;50.088;11.414;2023-09-08T02:37:26;4.78;;;4.47;;
24813;SDS011;12904;50.088;11.414;2023-09-08T02:39:52;4.90;;;4.50;;
24813;SDS011;12904;50.088;11.414;2023-09-08T02:42:18;5.32;;;4.93;;
24813;SDS011;12904;50.088;11.414;2023-09-08T02:44:43;5.15;;;4.75;;
24813;SDS011;12904;50.088;11.414;2023-09-08T02:47:09;3.97;;;3.67;;
24813;SDS011;12904;50.088;11.414;2023-09-08T02:49:35;4.60;;;4.20;;
24813;SDS011;12904;50.088;11.414;2023-09-08T02:52:01;2.70;;;2.50;;
24813;SDS011;12904;50.088;11.414;2023-09-08T02:54:26;3.17;;;2.95;;
24813;SDS011;12904;50.088;11.414;2023-09-08T02:56:52;3.72;;;3.42;;
24813;SDS011;12904;50.088;11.414;2023-09-08T02:59:18;4.30;;;4.00;;
24813;SDS011;12904;50.088;11.414;2023-09-08T03:01:43;4.15;;;3.65;;
24813;SDS011;12904;50.088;11.414;2023-09-08T03:04:09;4.22;;;3.85;;
24813;SDS011;12904;50.088;11.414;2023-09-08T03:06:34;5.95;;;5.35;;
24813;SDS011;12904;50.088;11.414;2023-09-08T03:09:00;5.43;;;4.47;;
24813;SDS011;12904;50.088;11.414;2023-09-08T03:11:26;4.55;;;4.15;;
24813;SDS011;12904;50.088;11.414;2023-09-08T03:13:51;5.60;;;5.00;;
24813;SDS011;12904;50.088;11.414;2023-09-08T03:16:17;5.32;;;4.90;;
24813;SDS011;12904;50.088;11.414;2023-09-08T03:18:42;5.70;;;4.07;;
24813;SDS011;12904;50.088;11.414;2023-09-08T03:21:08;4.45;;;4.15;;
24813;SDS011;12904;50.088;11.414;2023-09-08T03:23:37;4.78;;;4.38;;
24813;SDS011;12904;50.088;11.414;2023-09-08T03:26:04;5.13;;;4.63;;
24813;SDS011;12904;50.088;11.414;2023-09-08T03:28:31;5.05;;;4.65;;
24813;SDS011;12904;50.088;11.414;2023-09-08T03:30:57;6.13;;;4.55;;
24813;SDS011;12904;50.088;11.414;2023-09-08T03:33:23;5.43;;;4.93;;
24813;SDS011;12904;50.088;11.414;2023-09-08T03:35:48;5.70;;;5.30;;
24813;SDS011;12904;50.088;11.414;2023-09-08T03:38:14;4.80;;;4.40;;
24813;SDS011;12904;50.088;11.414;2023-09-08T03:40:40;4.25;;;3.95;;
24813;SDS011;12904;50.088;11.414;2023-09-08T03:43:05;6.28;;;5.70;;
24813;SDS011;12904;50.088;11.414;2023-09-08T03:45:31;6.65;;;6.07;;
24813;SDS011;12904;50.088;11.414;2023-09-08T03:47:57;6.05;;;5.55;;
24813;SDS011;12904;50.088;11.414;2023-09-08T03:50:22;5.32;;;4.88;;
24813;SDS011;12904;50.088;11.414;2023-09-08T03:52:48;5.35;;;4.95;;
24813;SDS011;12904;50.088;11.414;2023-09-08T03:55:13;5.43;;;4.93;;
24813;SDS011;12904;50.088;11.414;2023-09-08T03:57:39;2.80;;;2.22;;
24813;SDS011;12904;50.088;11.414;2023-09-08T04:00:05;1282.13;;;85.35;;
24813;SDS011;12904;50.088;11.414;2023-09-08T04:02:31;4.25;;;3.95;;
24813;SDS011;12904;50.088;11.414;2023-09-08T04:04:58;2.72;;;2.53;;
24813;SDS011;12904;50.088;11.414;2023-09-08T04:07:24;5.93;;;5.53;;
24813;SDS011;12904;50.088;11.414;2023-09-08T04:09:49;6.78;;;6.28;;
24813;SDS011;12904;50.088;11.414;2023-09-08T04:12:15;1999.90;;;999.90;;
24813;SDS011;12904;50.088;11.414;2023-09-08T04:14:41;1999.90;;;999.90;;
24813;SDS011;12904;50.088;11.414;2023-09-08T04:17:06;1999.90;;;999.90;;
24813;SDS011;12904;50.088;11.414;2023-09-08T04:19:33;1999.90;;;999.90;;
24813;SDS011;12904;50.088;11.414;2023-09-08T04:21:58;1999.90;;;999.90;;
24813;SDS011;12904;50.088;11.414;2023-09-08T04:24:24;1999.90;;;999.90;;
24813;SDS011;12904;50.088;11.414;2023-09-08T04:26:50;1999.90;;;999.90;;
24813;SDS011;12904;50.088;11.414;2023-09-08T04:29:15;1999.90;;;999.90;;
24813;SDS011;12904;50.088;11.414;2023-09-08T04:31:41;1999.90;;;999.90;;
24813;SDS011;12904;50.088;11.414;2023-09-08T04:34:06;1999.90;;;999.90;;
24813;SDS011;12904;50.088;11.414;2023-09-08T04:36:32;1999.90;;;999.90;;
24813;SDS011;12904;50.088;11.414;2023-09-08T04:38:58;1999.90;;;999.90;;
24813;SDS011;12904;50.088;11.414;2023-09-08T04:41:23;1999.90;;;999.90;;
24813;SDS011;12904;50.088;11.414;2023-09-08T04:43:49;1999.90;;;999.90;;
24813;SDS011;12904;50.088;11.414;2023-09-08T04:46:14;1999.90;;;999.90;;
24813;SDS011;12904;50.088;11.414;2023-09-08T04:48:40;1999.90;;;999.90;;
24813;SDS011;12904;50.088;11.414;2023-09-08T04:51:07;392.73;;;105.35;;
24813;SDS011;12904;50.088;11.414;2023-09-08T04:53:32;1531.13;;;767.38;;
24813;SDS011;12904;50.088;11.414;2023-09-08T04:55:58;1999.90;;;999.90;;
24813;SDS011;12904;50.088;11.414;2023-09-08T04:58:24;458.92;;;67.25;;
24813;SDS011;12904;50.088;11.414;2023-09-08T05:00:50;1999.90;;;999.90;;
24813;SDS011;12904;50.088;11.414;2023-09-08T05:03:16;1999.90;;;999.90;;
24813;SDS011;12904;50.088;11.414;2023-09-08T05:05:42;1999.90;;;999.90;;
24813;SDS011;12904;50.088;11.414;2023-09-08T05:08:07;1999.90;;;999.90;;
24813;SDS011;12904;50.088;11.414;2023-09-08T05:10:33;1999.90;;;999.90;;
24813;SDS011;12904;50.088;11.414;2023-09-08T05:12:58;1999.90;;;999.90;;
24813;SDS011;12904;50.088;11.414;2023-09-08T05:15:24;1999.90;;;999.90;;
24813;SDS011;12904;50.088;11.414;2023-09-08T05:17:50;1999.90;;;999.90;;
24813;SDS011;12904;50.088;11.414;2023-09-08T05:20:16;1999.90;;;999.90;;
24813;SDS011;12904;50.088;11.414;2023-09-08T05:22:42;1999.90;;;999.90;;
24813;SDS011;12904;50.088;11.414;2023-09-08T05:25:08;1999.90;;;999.90;;
24813;SDS011;12904;50.088;11.414;2023-09-08T05:27:33;1999.90;;;999.90;;
24813;SDS011;12904;50.088;11.414;2023-09-08T05:29:59;1999.90;;;999.90;;
24813;SDS011;12904;50.088;11.414;2023-09-08T05:32:25;1999.90;;;999.90;;
24813;SDS011;12904;50.088;11.414;2023-09-08T05:34:50;1999.90;;;999.90;;
24813;SDS011;12904;50.088;11.414;2023-09-08T05:37:16;1999.90;;;999.90;;
24813;SDS011;12904;50.088;11.414;2023-09-08T05:39:41;1999.90;;;999.90;;
24813;SDS011;12904;50.088;11.414;2023-09-08T05:42:07;1999.90;;;999.90;;
24813;SDS011;12904;50.088;11.414;2023-09-08T05:44:33;1999.90;;;999.90;;
24813;SDS011;12904;50.088;11.414;2023-09-08T05:46:58;1999.90;;;999.90;;
24813;SDS011;12904;50.088;11.414;2023-09-08T05:49:24;1999.90;;;999.90;;
24813;SDS011;12904;50.088;11.414;2023-09-08T05:51:49;1999.90;;;999.90;;
24813;SDS011;12904;50.088;11.414;2023-09-08T05:54:15;1999.90;;;999.90;;
24813;SDS011;12904;50.088;11.414;2023-09-08T05:56:41;1999.90;;;999.90;;
24813;SDS011;12904;50.088;11.414;2023-09-08T05:59:06;1999.90;;;999.90;;
24813;SDS011;12904;50.088;11.414;2023-09-08T06:01:32;1999.90;;;999.90;;
24813;SDS011;12904;50.088;11.414;2023-09-08T06:03:58;1999.90;;;999.90;;
24813;SDS011;12904;50.088;11.414;2023-09-08T06:06:23;9.90;;;9.60;;
24813;SDS011;12904;50.088;11.414;2023-09-08T06:08:50;1999.90;;;999.90;;
24813;SDS011;12904;50.088;11.414;2023-09-08T06:11:16;1999.90;;;999.90;;
24813;SDS011;12904;50.088;11.414;2023-09-08T06:13:41;1999.90;;;999.90;;
24813;SDS011;12904;50.088;11.414;2023-09-08T06:16:07;1999.90;;;999.90;;
24813;SDS011;12904;50.088;11.414;2023-09-08T06:18:33;1999.90;;;999.90;;
24813;SDS011;12904;50.088;11.414;2023-09-08T06:21:05;1999.90;;;999.90;;
24813;SDS011;12904;50.088;11.414;2023-09-08T06:23:32;1999.90;;;999.90;;
24813;SDS011;12904;50.088;11.414;2023-09-08T06:26:00;1999.90;;;999.90;;
24813;SDS011;12904;50.088;11.414;2023-09-08T06:28:27;1999.90;;;999.90;;
24813;SDS011;12904;50.088;11.414;2023-09-08T06:30:53;1999.90;;;999.90;;
24813;SDS011;12904;50.088;11.414;2023-09-08T06:33:18;17.58;;;16.85;;
24813;SDS011;12904;50.088;11.414;2023-09-08T06:35:45;24.98;;;24.27;;
24813;SDS011;12904;50.088;11.414;2023-09-08T06:38:12;34.97;;;32.90;;
24813;SDS011;12904;50.088;11.414;2023-09-08T06:40:38;0.20;;;0.20;;
24813;SDS011;12904;50.088;11.414;2023-09-08T06:43:04;0.30;;;0.30;;
24813;SDS011;12904;50.088;11.414;2023-09-08T06:45:29;0.40;;;0.40;;
24813;SDS011;12904;50.088;11.414;2023-09-08T06:47:55;0.30;;;0.30;;
24813;SDS011;12904;50.088;11.414;2023-09-08T06:50:21;0.30;;;0.30;;
24813;SDS011;12904;50.088;11.414;2023-09-08T06:52:48;0.88;;;0.88;;
24813;SDS011;12904;50.088;11.414;2023-09-08T06:55:16;3.63;;;3.53;;
24813;SDS011;12904;50.088;11.414;2023-09-08T06:57:42;1999.90;;;999.90;;
24813;SDS011;12904;50.088;11.414;2023-09-08T07:00:09;1999.90;;;999.90;;
24813;SDS011;12904;50.088;11.414;2023-09-08T07:02:36;1999.90;;;999.90;;
24813;SDS011;12904;50.088;11.414;2023-09-08T07:05:03;1999.90;;;999.90;;
24813;SDS011;12904;50.088;11.414;2023-09-08T07:07:33;1999.90;;;999.90;;
24813;SDS011;12904;50.088;11.414;2023-09-08T07:09:59;1999.90;;;999.90;;
24813;SDS011;12904;50.088;11.414;2023-09-08T07:12:25;1999.90;;;999.90;;
24813;SDS011;12904;50.088;11.414;2023-09-08T07:14:51;1999.90;;;999.90;;
24813;SDS011;12904;50.088;11.414;2023-09-08T07:17:16;1509.95;;;759.55;;
24813;SDS011;12904;50.088;11.414;2023-09-08T07:19:42;1999.90;;;999.90;;
24813;SDS011;12904;50.088;11.414;2023-09-08T07:22:07;1999.90;;;999.90;;
24813;SDS011;12904;50.088;11.414;2023-09-08T07:24:33;1999.90;;;999.90;;
24813;SDS011;12904;50.088;11.414;2023-09-08T07:26:59;1999.90;;;999.90;;
24813;SDS011;12904;50.088;11.414;2023-09-08T07:29:25;569.35;;;290.73;;
24813;SDS011;12904;50.088;11.414;2023-09-08T07:31:51;1999.90;;;999.90;;
24813;SDS011;12904;50.088;11.414;2023-09-08T07:34:16;1999.90;;;999.90;;
24813;SDS011;12904;50.088;11.414;2023-09-08T07:36:43;90.68;;;79.97;;
24813;SDS011;12904;50.088;11.414;2023-09-08T07:39:09;17.50;;;16.50;;
24813;SDS011;12904;50.088;11.414;2023-09-08T07:41:35;1509.80;;;757.88;;
24813;SDS011;12904;50.088;11.414;2023-09-08T07:44:01;36.30;;;33.00;;
24813;SDS011;12904;50.088;11.414;2023-09-08T07:46:27;40.15;;;37.15;;
24813;SDS011;12904;50.088;11.414;2023-09-08T07:48:53;1050.45;;;544.92;;
24813;SDS011;12904;50.088;11.414;2023-09-08T07:51:18;33.42;;;17.08;;
24813;SDS011;12904;50.088;11.414;2023-09-08T07:53:44;4.47;;;3.60;;
24813;SDS011;12904;50.088;11.414;2023-09-08T07:56:10;1999.90;;;999.90;;
24813;SDS011;12904;50.088;11.414;2023-09-08T07:58:36;3.63;;;2.50;;
24813;SDS011;12904;50.088;11.414;2023-09-08T08:01:01;1999.90;;;999.90;;
24813;SDS011;12904;50.088;11.414;2023-09-08T08:03:27;1999.90;;;999.90;;
24813;SDS011;12904;50.088;11.414;2023-09-08T08:05:53;382.65;;;66.95;;
24813;SDS011;12904;50.088;11.414;2023-09-08T08:08:19;1.80;;;1.15;;
24813;SDS011;12904;50.088;11.414;2023-09-08T08:10:44;1999.90;;;999.90;;
24813;SDS011;12904;50.088;11.414;2023-09-08T08:13:10;1999.90;;;999.90;;
24813;SDS011;12904;50.088;11.414;2023-09-08T08:15:36;1999.90;;;999.90;;
24813;SDS011;12904;50.088;11.414;2023-09-08T08:18:04;1999.90;;;999.90;;
24813;SDS011;12904;50.088;11.414;2023-09-08T08:20:30;1999.90;;;999.90;;
24813;SDS011;12904;50.088;11.414;2023-09-08T08:22:59;1999.90;;;999.90;;
24813;SDS011;12904;50.088;11.414;2023-09-08T08:25:26;1999.90;;;999.90;;
24813;SDS011;12904;50.088;11.414;2023-09-08T08:27:51;1999.90;;;999.90;;
24813;SDS011;12904;50.088;11.414;2023-09-08T08:30:17;1999.90;;;999.90;;
24813;SDS011;12904;50.088;11.414;2023-09-08T08:32:42;1999.90;;;999.90;;
24813;SDS011;12904;50.088;11.414;2023-09-08T08:35:08;1999.90;;;999.90;;
24813;SDS011;12904;50.088;11.414;2023-09-08T08:37:34;91.78;;;86.75;;
24813;SDS011;12904;50.088;11.414;2023-09-08T08:40:00;1999.90;;;999.90;;
24813;SDS011;12904;50.088;11.414;2023-09-08T08:42:32;1999.90;;;999.90;;
24813;SDS011;12904;50.088;11.414;2023-09-08T08:44:58;1999.90;;;999.90;;
24813;SDS011;12904;50.088;11.414;2023-09-08T08:47:25;1999.90;;;999.90;;
24813;SDS011;12904;50.088;11.414;2023-09-08T08:49:53;1999.90;;;999.90;;
24813;SDS011;12904;50.088;11.414;2023-09-08T08:52:23;1999.90;;;999.90;;
24813;SDS011;12904;50.088;11.414;2023-09-08T08:54:49;1999.90;;;999.90;;
24813;SDS011;12904;50.088;11.414;2023-09-08T08:57:15;1999.90;;;999.90;;
24813;SDS011;12904;50.088;11.414;2023-09-08T08:59:41;1999.90;;;999.90;;
24813;SDS011;12904;50.088;11.414;2023-09-08T09:02:07;1999.90;;;999.90;;
24813;SDS011;12904;50.088;11.414;2023-09-08T09:04:36;1999.90;;;999.90;;
24813;SDS011;12904;50.088;11.414;2023-09-08T09:07:03;1999.90;;;999.90;;
24813;SDS011;12904;50.088;11.414;2023-09-08T09:09:31;1999.90;;;999.90;;
24813;SDS011;12904;50.088;11.414;2023-09-08T09:11:57;1999.90;;;999.90;;
24813;SDS011;12904;50.088;11.414;2023-09-08T09:14:23;1999.90;;;999.90;;
24813;SDS011;12904;50.088;11.414;2023-09-08T09:16:49;1999.90;;;999.90;;
24813;SDS011;12904;50.088;11.414;2023-09-08T09:19:18;223.15;;;128.82;;
24813;SDS011;12904;50.088;11.414;2023-09-08T09:21:57;1398.93;;;285.52;;
24813;SDS011;12904;50.088;11.414;2023-09-08T09:27:05;1119.75;;;566.92;;
24813;SDS011;12904;50.088;11.414;2023-09-08T09:29:32;1999.90;;;999.90;;
24813;SDS011;12904;50.088;11.414;2023-09-08T09:34:31;1999.90;;;999.90;;
24813;SDS011;12904;50.088;11.414;2023-09-08T09:36:57;1999.90;;;999.90;;
24813;SDS011;12904;50.088;11.414;2023-09-08T09:39:23;1999.90;;;999.90;;
24813;SDS011;12904;50.088;11.414;2023-09-08T09:41:54;1999.90;;;999.90;;
24813;SDS011;12904;50.088;11.414;2023-09-08T09:44:21;1999.90;;;999.90;;
24813;SDS011;12904;50.088;11.414;2023-09-08T09:46:47;1999.90;;;999.90;;
24813;SDS011;12904;50.088;11.414;2023-09-08T09:49:14;1999.90;;;999.90;;
24813;SDS011;12904;50.088;11.414;2023-09-08T09:51:52;1999.90;;;999.90;;
24813;SDS011;12904;50.088;11.414;2023-09-08T09:54:18;1999.90;;;999.90;;
24813;SDS011;12904;50.088;11.414;2023-09-08T09:56:45;1999.90;;;999.90;;
24813;SDS011;12904;50.088;11.414;2023-09-08T09:59:15;611.47;;;119.13;;
24813;SDS011;12904;50.088;11.414;2023-09-08T10:01:41;1.88;;;1.77;;
24813;SDS011;12904;50.088;11.414;2023-09-08T10:04:07;2.10;;;1.90;;
24813;SDS011;12904;50.088;11.414;2023-09-08T10:06:34;8.48;;;2.47;;
24813;SDS011;12904;50.088;11.414;2023-09-08T10:09:01;740.83;;;63.13;;
24813;SDS011;12904;50.088;11.414;2023-09-08T10:14:30;3.08;;;1.85;;
24813;SDS011;12904;50.088;11.414;2023-09-08T10:17:01;1999.90;;;999.90;;
24813;SDS011;12904;50.088;11.414;2023-09-08T10:19:27;399.70;;;159.88;;
24813;SDS011;12904;50.088;11.414;2023-09-08T10:21:59;2.17;;;1.92;;
24813;SDS011;12904;50.088;11.414;2023-09-08T10:24:29;2.42;;;2.20;;
24813;SDS011;12904;50.088;11.414;2023-09-08T10:29:32;90.38;;;40.55;;
24813;SDS011;12904;50.088;11.414;2023-09-08T10:31:58;3.83;;;2.00;;
24813;SDS011;12904;50.088;11.414;2023-09-08T10:34:25;43.80;;;34.92;;
24813;SDS011;12904;50.088;11.414;2023-09-08T10:36:52;682.65;;;324.83;;
24813;SDS011;12904;50.088;11.414;2023-09-08T10:39:28;2.03;;;1.80;;
24813;SDS011;12904;50.088;11.414;2023-09-08T10:44:43;103.45;;;32.22;;
24813;SDS011;12904;50.088;11.414;2023-09-08T10:47:23;1725.00;;;164.77;;
24813;SDS011;12904;50.088;11.414;2023-09-08T10:49:51;272.83;;;81.82;;
24813;SDS011;12904;50.088;11.414;2023-09-08T10:52:22;0.80;;;0.80;;
24813;SDS011;12904;50.088;11.414;2023-09-08T10:54:53;2.08;;;1.50;;
24813;SDS011;12904;50.088;11.414;2023-09-08T10:57:20;1.77;;;1.02;;
24813;SDS011;12904;50.088;11.414;2023-09-08T10:59:57;1.58;;;1.08;;
24813;SDS011;12904;50.088;11.414;2023-09-08T11:02:31;1.98;;;1.08;;
24813;SDS011;12904;50.088;11.414;2023-09-08T11:05:01;0.90;;;0.70;;
24813;SDS011;12904;50.088;11.414;2023-09-08T11:07:38;1.88;;;1.42;;
24813;SDS011;12904;50.088;11.414;2023-09-08T11:10:05;1.45;;;1.35;;
24813;SDS011;12904;50.088;11.414;2023-09-08T11:12:32;2.22;;;2.03;;
24813;SDS011;12904;50.088;11.414;2023-09-08T11:14:59;1.65;;;1.20;;
24813;SDS011;12904;50.088;11.414;2023-09-08T11:17:29;1.17;;;1.08;;
24813;SDS011;12904;50.088;11.414;2023-09-08T11:19:55;1.10;;;0.80;;
24813;SDS011;12904;50.088;11.414;2023-09-08T11:22:25;0.98;;;0.80;;
24813;SDS011;12904;50.088;11.414;2023-09-08T11:24:51;1.67;;;1.52;;
24813;SDS011;12904;50.088;11.414;2023-09-08T11:27:18;0.68;;;0.68;;
24813;SDS011;12904;50.088;11.414;2023-09-08T11:29:45;1.75;;;0.85;;
24813;SDS011;12904;50.088;11.414;2023-09-08T11:32:12;1.10;;;1.00;;
24813;SDS011;12904;50.088;11.414;2023-09-08T11:34:38;1.20;;;0.90;;
24813;SDS011;12904;50.088;11.414;2023-09-08T11:37:10;1.77;;;0.95;;
24813;SDS011;12904;50.088;11.414;2023-09-08T11:39:38;0.85;;;0.80;;
24813;SDS011;12904;50.088;11.414;2023-09-08T11:42:05;1.35;;;1.25;;
24813;SDS011;12904;50.088;11.414;2023-09-08T11:44:32;206.02;;;11.40;;
24813;SDS011;12904;50.088;11.414;2023-09-08T11:46:59;1.88;;;0.98;;
24813;SDS011;12904;50.088;11.414;2023-09-08T11:49:26;908.75;;;60.53;;
24813;SDS011;12904;50.088;11.414;2023-09-08T11:51:51;1999.90;;;999.90;;
24813;SDS011;12904;50.088;11.414;2023-09-08T11:54:17;1999.90;;;999.90;;
24813;SDS011;12904;50.088;11.414;2023-09-08T11:56:43;78.63;;;71.07;;
24813;SDS011;12904;50.088;11.414;2023-09-08T11:59:10;1.35;;;0.98;;
24813;SDS011;12904;50.088;11.414;2023-09-08T12:01:37;1.23;;;1.08;;
24813;SDS011;12904;50.088;11.414;2023-09-08T12:04:03;113.32;;;100.82;;
24813;SDS011;12904;50.088;11.414;2023-09-08T12:06:29;1999.90;;;999.90;;
24813;SDS011;12904;50.088;11.414;2023-09-08T12:08:55;1999.90;;;999.90;;
24813;SDS011;12904;50.088;11.414;2023-09-08T12:11:31;2.83;;;1.95;;
24813;SDS011;12904;50.088;11.414;2023-09-08T12:14:00;1.98;;;1.23;;
24813;SDS011;12904;50.088;11.414;2023-09-08T12:16:26;1.63;;;1.23;;
24813;SDS011;12904;50.088;11.414;2023-09-08T12:18:52;446.52;;;202.15;;
24813;SDS011;12904;50.088;11.414;2023-09-08T12:21:17;87.82;;;5.13;;
24813;SDS011;12904;50.088;11.414;2023-09-08T12:23:49;9.90;;;3.17;;
24813;SDS011;12904;50.088;11.414;2023-09-08T12:26:16;424.45;;;67.20;;
24813;SDS011;12904;50.088;11.414;2023-09-08T12:28:43;3.40;;;1.98;;
24813;SDS011;12904;50.088;11.414;2023-09-08T12:31:09;0.20;;;0.20;;
24813;SDS011;12904;50.088;11.414;2023-09-08T12:33:35;0.13;;;0.13;;
24813;SDS011;12904;50.088;11.414;2023-09-08T12:36:14;0.20;;;0.20;;
24813;SDS011;12904;50.088;11.414;2023-09-08T12:38:47;0.20;;;0.20;;
24813;SDS011;12904;50.088;11.414;2023-09-08T12:41:14;0.30;;;0.30;;
24813;SDS011;12904;50.088;11.414;2023-09-08T12:43:41;911.35;;;85.45;;
24813;SDS011;12904;50.088;11.414;2023-09-08T12:46:06;0.10;;;0.10;;
24813;SDS011;12904;50.088;11.414;2023-09-08T12:48:32;137.35;;;96.35;;
24813;SDS011;12904;50.088;11.414;2023-09-08T12:50:58;0.32;;;0.32;;
24813;SDS011;12904;50.088;11.414;2023-09-08T12:53:24;53.97;;;27.33;;
24813;SDS011;12904;50.088;11.414;2023-09-08T12:55:50;22.40;;;13.00;;
24813;SDS011;12904;50.088;11.414;2023-09-08T12:58:16;1.35;;;0.68;;
24813;SDS011;12904;50.088;11.414;2023-09-08T13:00:45;0.30;;;0.17;;
24813;SDS011;12904;50.088;11.414;2023-09-08T13:03:10;26.33;;;13.70;;
24813;SDS011;12904;50.088;11.414;2023-09-08T13:05:36;0.63;;;0.30;;
24813;SDS011;12904;50.088;11.414;2023-09-08T13:08:03;131.30;;;22.40;;
24813;SDS011;12904;50.088;11.414;2023-09-08T13:10:30;0.52;;;0.45;;
24813;SDS011;12904;50.088;11.414;2023-09-08T13:12:56;5.70;;;5.40;;
24813;SDS011;12904;50.088;11.414;2023-09-08T13:15:22;3.03;;;1.98;;
24813;SDS011;12904;50.088;11.414;2023-09-08T13:17:48;20.77;;;9.93;;
24813;SDS011;12904;50.088;11.414;2023-09-08T13:20:13;1.85;;;1.45;;
24813;SDS011;12904;50.088;11.414;2023-09-08T13:22:39;2.58;;;2.38;;
24813;SDS011;12904;50.088;11.414;2023-09-08T13:25:05;4.18;;;3.92;;
24813;SDS011;12904;50.088;11.414;2023-09-08T13:27:31;1999.90;;;999.90;;
24813;SDS011;12904;50.088;11.414;2023-09-08T13:30:29;36.30;;;33.70;;
24813;SDS011;12904;50.088;11.414;2023-09-08T13:32:51;1999.90;;;999.90;;
24813;SDS011;12904;50.088;11.414;2023-09-08T13:35:17;1999.90;;;999.90;;
24813;SDS011;12904;50.088;11.414;2023-09-08T13:37:42;1999.90;;;999.90;;
24813;SDS011;12904;50.088;11.414;2023-09-08T13:40:08;1999.90;;;999.90;;
24813;SDS011;12904;50.088;11.414;2023-09-08T13:42:34;1999.90;;;999.90;;
24813;SDS011;12904;50.088;11.414;2023-09-08T13:45:00;1999.90;;;999.90;;
24813;SDS011;12904;50.088;11.414;2023-09-08T13:47:25;1999.90;;;999.90;;
24813;SDS011;12904;50.088;11.414;2023-09-08T13:49:51;1999.90;;;999.90;;
24813;SDS011;12904;50.088;11.414;2023-09-08T13:52:16;1999.90;;;999.90;;
24813;SDS011;12904;50.088;11.414;2023-09-08T13:54:42;1999.90;;;999.90;;
24813;SDS011;12904;50.088;11.414;2023-09-08T13:57:08;1999.90;;;999.90;;
24813;SDS011;12904;50.088;11.414;2023-09-08T13:59:33;1999.90;;;999.90;;
24813;SDS011;12904;50.088;11.414;2023-09-08T14:01:59;1999.90;;;999.90;;
24813;SDS011;12904;50.088;11.414;2023-09-08T14:04:26;1999.90;;;999.90;;
24813;SDS011;12904;50.088;11.414;2023-09-08T14:06:52;1999.90;;;999.90;;
24813;SDS011;12904;50.088;11.414;2023-09-08T14:09:18;224.88;;;50.90;;
24813;SDS011;12904;50.088;11.414;2023-09-08T14:11:44;2.17;;;2.08;;
24813;SDS011;12904;50.088;11.414;2023-09-08T14:14:09;0.63;;;0.63;;